Forside
METAR-TAF:

METAR-TAF

Lufthavne :

Brunei, Brunei

Breddekreds: 04-56N, længdekreds: 114-56E, højde: 22 m

Aktuelle vejr

Denne rapport blev lavet for 31 minutter siden, kl. 20:30 UTC
Vind 1 kt fra nordøst
Temperatur 27°C
Fugtighed 100%
Tryk 1009 hPa
Sigt: 6000 m
Nogle få skyer i en højde af 500 ft
Brudte skyer i en højde af 14000 ft

METAR: WBSB 142030Z 04001KT 6000 FEW005 BKN140 27/27 Q1009 NOSIG

Tid: 05:01 (21:01 UTC)

Vejrudsigter

Denne rapport blev lavet for 4 timer og 11 minutter siden, kl. 16:50 UTC
Foreløbig gælder fra 14 på 18 UTC til 16 på 00 UTC
Vind 2 kt fra sydøst
Sigt: 7000 m
Nogle få skyer i en højde af 1500 ft
ændring
fra 15 på 03 UTC til 15 på 05 UTC
Vind 10 kt fra nordnordvest
Nogle få skyer i en højde af 1600 ft

TAF: WBSB 141650Z 1418/1600 14002KT 7000 FEW015 BECMG 1503/1505 33010KT FEW016

Vejrobservationer og prognoser fra mere end 4000 lufthavne (METAR og TAF).

De gule og røde prikker repræsenterer de meteorologiske stationer.

Flyt musen over at se navnet på stationen.

Så klik over at se vejr observationer og prognoser.

At skifte det kort: Klik på de grønne knapper med et sort kors for at zoome ind; på den grønne knap med en bindestreg for at zoome ud; eller på de grønne pile for tilstødende kort.


METAR-TAF: